sensor_id;sensor_type;location;lat;lon;timestamp;temperature;humidity
16700;DHT22;8466;52.286;21.124;2022-10-16T00:01:47;13.70;99.90
16700;DHT22;8466;52.286;21.124;2022-10-16T00:04:16;13.70;99.90
16700;DHT22;8466;52.286;21.124;2022-10-16T00:06:44;13.80;99.90
16700;DHT22;8466;52.286;21.124;2022-10-16T00:09:13;13.80;99.90
16700;DHT22;8466;52.286;21.124;2022-10-16T00:11:43;13.70;99.90
16700;DHT22;8466;52.286;21.124;2022-10-16T00:14:14;13.80;99.90
16700;DHT22;8466;52.286;21.124;2022-10-16T00:16:43;13.80;99.90
16700;DHT22;8466;52.286;21.124;2022-10-16T00:19:12;13.80;99.90
16700;DHT22;8466;52.286;21.124;2022-10-16T00:21:41;13.80;99.90
16700;DHT22;8466;52.286;21.124;2022-10-16T00:24:10;13.80;99.90
16700;DHT22;8466;52.286;21.124;2022-10-16T00:26:39;13.80;99.90
16700;DHT22;8466;52.286;21.124;2022-10-16T00:29:10;13.80;99.90
16700;DHT22;8466;52.286;21.124;2022-10-16T00:31:38;13.80;99.90
16700;DHT22;8466;52.286;21.124;2022-10-16T00:34:07;13.90;99.90
16700;DHT22;8466;52.286;21.124;2022-10-16T00:36:36;13.80;99.90
16700;DHT22;8466;52.286;21.124;2022-10-16T00:39:05;13.90;99.90
16700;DHT22;8466;52.286;21.124;2022-10-16T00:41:33;13.90;99.90
16700;DHT22;8466;52.286;21.124;2022-10-16T00:44:40;13.90;99.90
16700;DHT22;8466;52.286;21.124;2022-10-16T00:46:54;13.90;99.90
16700;DHT22;8466;52.286;21.124;2022-10-16T00:49:23;13.90;99.90
16700;DHT22;8466;52.286;21.124;2022-10-16T00:51:53;13.90;99.90
16700;DHT22;8466;52.286;21.124;2022-10-16T00:54:24;14.00;99.90
16700;DHT22;8466;52.286;21.124;2022-10-16T00:56:54;13.90;99.90
16700;DHT22;8466;52.286;21.124;2022-10-16T00:59:26;13.90;99.90
16700;DHT22;8466;52.286;21.124;2022-10-16T01:01:58;13.90;99.90
16700;DHT22;8466;52.286;21.124;2022-10-16T01:04:32;13.80;99.90
16700;DHT22;8466;52.286;21.124;2022-10-16T01:07:07;13.80;99.90
16700;DHT22;8466;52.286;21.124;2022-10-16T01:09:47;13.80;99.90
16700;DHT22;8466;52.286;21.124;2022-10-16T01:12:25;13.80;99.90
16700;DHT22;8466;52.286;21.124;2022-10-16T01:14:59;13.70;99.90
16700;DHT22;8466;52.286;21.124;2022-10-16T01:17:36;13.70;99.90
16700;DHT22;8466;52.286;21.124;2022-10-16T01:20:11;13.70;99.90
16700;DHT22;8466;52.286;21.124;2022-10-16T01:22:49;13.70;99.90
16700;DHT22;8466;52.286;21.124;2022-10-16T01:25:29;13.60;99.90
16700;DHT22;8466;52.286;21.124;2022-10-16T01:28:02;13.60;99.90
16700;DHT22;8466;52.286;21.124;2022-10-16T01:30:34;13.60;99.90
16700;DHT22;8466;52.286;21.124;2022-10-16T01:33:07;13.60;99.90
16700;DHT22;8466;52.286;21.124;2022-10-16T01:35:41;13.50;99.90
16700;DHT22;8466;52.286;21.124;2022-10-16T01:38:14;13.50;99.90
16700;DHT22;8466;52.286;21.124;2022-10-16T01:40:47;13.50;99.90
16700;DHT22;8466;52.286;21.124;2022-10-16T01:43:22;13.50;99.90
16700;DHT22;8466;52.286;21.124;2022-10-16T01:45:53;13.50;99.90
16700;DHT22;8466;52.286;21.124;2022-10-16T01:48:23;13.50;99.90
16700;DHT22;8466;52.286;21.124;2022-10-16T01:50:55;13.50;99.90
16700;DHT22;8466;52.286;21.124;2022-10-16T01:53:26;13.40;99.90
16700;DHT22;8466;52.286;21.124;2022-10-16T01:55:56;13.40;99.90
16700;DHT22;8466;52.286;21.124;2022-10-16T01:58:29;13.40;99.90
16700;DHT22;8466;52.286;21.124;2022-10-16T02:01:03;13.40;99.90
16700;DHT22;8466;52.286;21.124;2022-10-16T02:03:34;13.40;99.90
16700;DHT22;8466;52.286;21.124;2022-10-16T02:06:03;13.40;99.90
16700;DHT22;8466;52.286;21.124;2022-10-16T02:08:33;13.50;99.90
16700;DHT22;8466;52.286;21.124;2022-10-16T02:11:03;13.50;99.90
16700;DHT22;8466;52.286;21.124;2022-10-16T02:13:36;13.40;99.90
16700;DHT22;8466;52.286;21.124;2022-10-16T02:16:06;13.40;99.90
16700;DHT22;8466;52.286;21.124;2022-10-16T02:18:35;13.40;99.90
16700;DHT22;8466;52.286;21.124;2022-10-16T02:21:08;13.40;99.90
16700;DHT22;8466;52.286;21.124;2022-10-16T02:23:45;13.40;99.90
16700;DHT22;8466;52.286;21.124;2022-10-16T02:26:20;13.30;99.90
16700;DHT22;8466;52.286;21.124;2022-10-16T02:28:56;13.40;99.90
16700;DHT22;8466;52.286;21.124;2022-10-16T02:31:28;13.30;99.90
16700;DHT22;8466;52.286;21.124;2022-10-16T02:34:03;13.30;99.90
16700;DHT22;8466;52.286;21.124;2022-10-16T02:36:34;13.30;99.90
16700;DHT22;8466;52.286;21.124;2022-10-16T02:39:04;13.30;99.90
16700;DHT22;8466;52.286;21.124;2022-10-16T02:41:34;13.30;99.90
16700;DHT22;8466;52.286;21.124;2022-10-16T02:44:04;13.30;99.90
16700;DHT22;8466;52.286;21.124;2022-10-16T02:46:32;13.30;99.90
16700;DHT22;8466;52.286;21.124;2022-10-16T02:49:01;13.30;99.90
16700;DHT22;8466;52.286;21.124;2022-10-16T02:51:30;13.20;99.90
16700;DHT22;8466;52.286;21.124;2022-10-16T02:53:59;13.20;99.90
16700;DHT22;8466;52.286;21.124;2022-10-16T02:56:27;13.20;99.90
16700;DHT22;8466;52.286;21.124;2022-10-16T02:58:57;13.20;99.90
16700;DHT22;8466;52.286;21.124;2022-10-16T03:01:27;13.20;99.90
16700;DHT22;8466;52.286;21.124;2022-10-16T03:03:56;13.20;99.90
16700;DHT22;8466;52.286;21.124;2022-10-16T03:06:25;13.20;99.90
16700;DHT22;8466;52.286;21.124;2022-10-16T03:08:53;13.20;99.90
16700;DHT22;8466;52.286;21.124;2022-10-16T03:11:22;13.20;99.90
16700;DHT22;8466;52.286;21.124;2022-10-16T03:13:51;13.20;99.90
16700;DHT22;8466;52.286;21.124;2022-10-16T03:16:20;13.20;99.90
16700;DHT22;8466;52.286;21.124;2022-10-16T03:18:50;13.20;99.90
16700;DHT22;8466;52.286;21.124;2022-10-16T03:21:19;13.20;99.90
16700;DHT22;8466;52.286;21.124;2022-10-16T03:23:48;13.20;99.90
16700;DHT22;8466;52.286;21.124;2022-10-16T03:26:16;13.20;99.90
16700;DHT22;8466;52.286;21.124;2022-10-16T03:28:45;13.20;99.90
16700;DHT22;8466;52.286;21.124;2022-10-16T03:31:14;13.20;99.90
16700;DHT22;8466;52.286;21.124;2022-10-16T03:33:42;13.20;99.90
16700;DHT22;8466;52.286;21.124;2022-10-16T03:36:12;13.20;99.90
16700;DHT22;8466;52.286;21.124;2022-10-16T03:38:41;13.20;99.90
16700;DHT22;8466;52.286;21.124;2022-10-16T03:41:10;13.20;99.90
16700;DHT22;8466;52.286;21.124;2022-10-16T03:43:39;13.30;99.90
16700;DHT22;8466;52.286;21.124;2022-10-16T03:46:08;13.30;99.90
16700;DHT22;8466;52.286;21.124;2022-10-16T03:48:36;13.20;99.90
16700;DHT22;8466;52.286;21.124;2022-10-16T03:51:07;13.20;99.90
16700;DHT22;8466;52.286;21.124;2022-10-16T03:53:37;13.10;99.90
16700;DHT22;8466;52.286;21.124;2022-10-16T03:56:06;13.10;99.90
16700;DHT22;8466;52.286;21.124;2022-10-16T03:58:34;13.00;99.90
16700;DHT22;8466;52.286;21.124;2022-10-16T04:01:03;13.10;99.90
16700;DHT22;8466;52.286;21.124;2022-10-16T04:03:32;13.10;99.90
16700;DHT22;8466;52.286;21.124;2022-10-16T04:06:01;13.10;99.90
16700;DHT22;8466;52.286;21.124;2022-10-16T04:08:29;13.10;99.90
16700;DHT22;8466;52.286;21.124;2022-10-16T04:11:03;13.00;99.90
16700;DHT22;8466;52.286;21.124;2022-10-16T04:13:31;13.10;99.90
16700;DHT22;8466;52.286;21.124;2022-10-16T04:16:00;13.00;99.90
16700;DHT22;8466;52.286;21.124;2022-10-16T04:18:29;13.00;99.90
16700;DHT22;8466;52.286;21.124;2022-10-16T04:21:02;12.80;99.90
16700;DHT22;8466;52.286;21.124;2022-10-16T04:23:31;12.70;99.90
16700;DHT22;8466;52.286;21.124;2022-10-16T04:26:02;12.50;99.90
16700;DHT22;8466;52.286;21.124;2022-10-16T04:28:31;12.40;99.90
16700;DHT22;8466;52.286;21.124;2022-10-16T04:30:59;12.40;99.90
16700;DHT22;8466;52.286;21.124;2022-10-16T04:33:29;12.30;99.90
16700;DHT22;8466;52.286;21.124;2022-10-16T04:35:58;12.30;99.90
16700;DHT22;8466;52.286;21.124;2022-10-16T04:38:27;12.30;99.90
16700;DHT22;8466;52.286;21.124;2022-10-16T04:40:56;12.30;99.90
16700;DHT22;8466;52.286;21.124;2022-10-16T04:43:26;12.10;99.90
16700;DHT22;8466;52.286;21.124;2022-10-16T04:45:55;12.20;99.90
16700;DHT22;8466;52.286;21.124;2022-10-16T04:48:24;12.10;99.90
16700;DHT22;8466;52.286;21.124;2022-10-16T04:50:52;12.10;99.90
16700;DHT22;8466;52.286;21.124;2022-10-16T04:53:21;12.10;99.90
16700;DHT22;8466;52.286;21.124;2022-10-16T04:55:50;12.00;99.90
16700;DHT22;8466;52.286;21.124;2022-10-16T04:58:19;11.90;99.90
16700;DHT22;8466;52.286;21.124;2022-10-16T05:00:49;11.90;99.90
16700;DHT22;8466;52.286;21.124;2022-10-16T05:03:17;11.80;99.90
16700;DHT22;8466;52.286;21.124;2022-10-16T05:05:47;11.80;99.90
16700;DHT22;8466;52.286;21.124;2022-10-16T05:08:16;11.70;99.90
16700;DHT22;8466;52.286;21.124;2022-10-16T05:10:45;11.70;99.90
16700;DHT22;8466;52.286;21.124;2022-10-16T05:13:14;11.70;99.90
16700;DHT22;8466;52.286;21.124;2022-10-16T05:15:46;11.70;99.90
16700;DHT22;8466;52.286;21.124;2022-10-16T05:18:17;11.60;99.90
16700;DHT22;8466;52.286;21.124;2022-10-16T05:20:45;11.60;99.90
16700;DHT22;8466;52.286;21.124;2022-10-16T05:23:14;11.70;99.90
16700;DHT22;8466;52.286;21.124;2022-10-16T05:25:43;11.80;99.90
16700;DHT22;8466;52.286;21.124;2022-10-16T05:28:12;11.90;99.90
16700;DHT22;8466;52.286;21.124;2022-10-16T05:30:40;12.00;99.90
16700;DHT22;8466;52.286;21.124;2022-10-16T05:33:09;12.20;99.90
16700;DHT22;8466;52.286;21.124;2022-10-16T05:35:39;12.30;99.90
16700;DHT22;8466;52.286;21.124;2022-10-16T05:38:08;12.40;99.90
16700;DHT22;8466;52.286;21.124;2022-10-16T05:40:37;12.50;99.90
16700;DHT22;8466;52.286;21.124;2022-10-16T05:43:06;12.50;99.90
16700;DHT22;8466;52.286;21.124;2022-10-16T05:45:35;12.50;99.90
16700;DHT22;8466;52.286;21.124;2022-10-16T05:48:04;12.50;99.90
16700;DHT22;8466;52.286;21.124;2022-10-16T05:50:33;12.40;99.90
16700;DHT22;8466;52.286;21.124;2022-10-16T05:53:03;12.30;99.90
16700;DHT22;8466;52.286;21.124;2022-10-16T05:55:32;12.30;99.90
16700;DHT22;8466;52.286;21.124;2022-10-16T05:58:01;12.20;99.90
16700;DHT22;8466;52.286;21.124;2022-10-16T06:00:30;12.10;99.90
16700;DHT22;8466;52.286;21.124;2022-10-16T06:02:58;12.00;99.90
16700;DHT22;8466;52.286;21.124;2022-10-16T06:05:27;12.00;99.90
16700;DHT22;8466;52.286;21.124;2022-10-16T06:07:56;12.00;99.90
16700;DHT22;8466;52.286;21.124;2022-10-16T06:10:26;12.00;99.90
16700;DHT22;8466;52.286;21.124;2022-10-16T06:12:56;11.90;99.90
16700;DHT22;8466;52.286;21.124;2022-10-16T06:15:24;11.90;99.90
16700;DHT22;8466;52.286;21.124;2022-10-16T06:17:53;11.90;99.90
16700;DHT22;8466;52.286;21.124;2022-10-16T06:20:22;12.00;99.90
16700;DHT22;8466;52.286;21.124;2022-10-16T06:22:50;12.00;99.90
16700;DHT22;8466;52.286;21.124;2022-10-16T06:25:19;12.10;99.90
16700;DHT22;8466;52.286;21.124;2022-10-16T06:27:49;12.10;99.90
16700;DHT22;8466;52.286;21.124;2022-10-16T06:30:18;12.20;99.90
16700;DHT22;8466;52.286;21.124;2022-10-16T06:32:47;12.30;99.90
16700;DHT22;8466;52.286;21.124;2022-10-16T06:35:16;12.30;99.90
16700;DHT22;8466;52.286;21.124;2022-10-16T06:37:44;12.40;99.90
16700;DHT22;8466;52.286;21.124;2022-10-16T06:40:13;12.50;99.90
16700;DHT22;8466;52.286;21.124;2022-10-16T06:42:42;12.50;99.90
16700;DHT22;8466;52.286;21.124;2022-10-16T06:45:12;12.50;99.90
16700;DHT22;8466;52.286;21.124;2022-10-16T06:47:41;12.60;99.90
16700;DHT22;8466;52.286;21.124;2022-10-16T06:50:10;12.60;99.90
16700;DHT22;8466;52.286;21.124;2022-10-16T06:52:38;12.70;99.90
16700;DHT22;8466;52.286;21.124;2022-10-16T06:55:07;12.90;99.90
16700;DHT22;8466;52.286;21.124;2022-10-16T06:57:36;13.00;99.90
16700;DHT22;8466;52.286;21.124;2022-10-16T07:00:06;13.10;99.90
16700;DHT22;8466;52.286;21.124;2022-10-16T07:02:36;13.10;99.90
16700;DHT22;8466;52.286;21.124;2022-10-16T07:05:05;13.20;99.90
16700;DHT22;8466;52.286;21.124;2022-10-16T07:07:34;13.30;99.90
16700;DHT22;8466;52.286;21.124;2022-10-16T07:10:04;13.40;99.90
16700;DHT22;8466;52.286;21.124;2022-10-16T07:12:33;13.60;99.90
16700;DHT22;8466;52.286;21.124;2022-10-16T07:15:02;13.90;99.90
16700;DHT22;8466;52.286;21.124;2022-10-16T07:17:31;14.20;99.90
16700;DHT22;8466;52.286;21.124;2022-10-16T07:20:01;14.60;99.90
16700;DHT22;8466;52.286;21.124;2022-10-16T07:22:32;14.90;99.90
16700;DHT22;8466;52.286;21.124;2022-10-16T07:25:01;15.20;99.90
16700;DHT22;8466;52.286;21.124;2022-10-16T07:27:29;15.30;99.90
16700;DHT22;8466;52.286;21.124;2022-10-16T07:29:58;15.40;99.90
16700;DHT22;8466;52.286;21.124;2022-10-16T07:32:32;15.40;99.90
16700;DHT22;8466;52.286;21.124;2022-10-16T07:35:02;15.50;99.90
16700;DHT22;8466;52.286;21.124;2022-10-16T07:37:31;15.50;99.90
16700;DHT22;8466;52.286;21.124;2022-10-16T07:40:00;15.50;99.90
16700;DHT22;8466;52.286;21.124;2022-10-16T07:42:29;15.50;99.90
16700;DHT22;8466;52.286;21.124;2022-10-16T07:44:58;15.60;99.90
16700;DHT22;8466;52.286;21.124;2022-10-16T07:47:26;15.80;99.90
16700;DHT22;8466;52.286;21.124;2022-10-16T07:49:55;16.00;99.90
16700;DHT22;8466;52.286;21.124;2022-10-16T07:52:25;16.20;99.90
16700;DHT22;8466;52.286;21.124;2022-10-16T07:54:54;16.40;99.90
16700;DHT22;8466;52.286;21.124;2022-10-16T07:57:23;16.50;99.90
16700;DHT22;8466;52.286;21.124;2022-10-16T07:59:52;16.50;99.90
16700;DHT22;8466;52.286;21.124;2022-10-16T08:02:21;16.50;99.90
16700;DHT22;8466;52.286;21.124;2022-10-16T08:04:50;16.40;99.90
16700;DHT22;8466;52.286;21.124;2022-10-16T08:07:18;16.40;99.90
16700;DHT22;8466;52.286;21.124;2022-10-16T08:09:50;16.50;99.90
16700;DHT22;8466;52.286;21.124;2022-10-16T08:12:20;16.50;99.90
16700;DHT22;8466;52.286;21.124;2022-10-16T08:14:48;16.50;99.90
16700;DHT22;8466;52.286;21.124;2022-10-16T08:17:17;16.50;99.90
16700;DHT22;8466;52.286;21.124;2022-10-16T08:19:49;16.50;99.90
16700;DHT22;8466;52.286;21.124;2022-10-16T08:22:22;16.60;99.90
16700;DHT22;8466;52.286;21.124;2022-10-16T08:24:54;16.50;99.90
16700;DHT22;8466;52.286;21.124;2022-10-16T08:27:23;16.60;99.90
16700;DHT22;8466;52.286;21.124;2022-10-16T08:29:52;16.60;99.90
16700;DHT22;8466;52.286;21.124;2022-10-16T08:32:21;16.70;99.90
16700;DHT22;8466;52.286;21.124;2022-10-16T08:34:53;16.70;99.90
16700;DHT22;8466;52.286;21.124;2022-10-16T08:37:22;16.80;99.90
16700;DHT22;8466;52.286;21.124;2022-10-16T08:39:51;16.90;99.90
16700;DHT22;8466;52.286;21.124;2022-10-16T08:42:35;16.90;99.90
16700;DHT22;8466;52.286;21.124;2022-10-16T08:45:19;16.90;99.90
16700;DHT22;8466;52.286;21.124;2022-10-16T08:48:00;16.90;99.90
16700;DHT22;8466;52.286;21.124;2022-10-16T08:50:37;16.90;99.90
16700;DHT22;8466;52.286;21.124;2022-10-16T08:53:07;16.90;99.90
16700;DHT22;8466;52.286;21.124;2022-10-16T08:55:43;16.90;99.90
16700;DHT22;8466;52.286;21.124;2022-10-16T08:58:16;17.10;99.90
16700;DHT22;8466;52.286;21.124;2022-10-16T09:00:48;17.30;99.90
16700;DHT22;8466;52.286;21.124;2022-10-16T09:03:27;17.50;99.90
16700;DHT22;8466;52.286;21.124;2022-10-16T09:06:13;17.70;99.90
16700;DHT22;8466;52.286;21.124;2022-10-16T09:08:54;18.00;99.90
16700;DHT22;8466;52.286;21.124;2022-10-16T09:11:32;18.20;99.90
16700;DHT22;8466;52.286;21.124;2022-10-16T09:14:13;18.40;99.90
16700;DHT22;8466;52.286;21.124;2022-10-16T09:16:48;18.60;99.90
16700;DHT22;8466;52.286;21.124;2022-10-16T09:19:24;18.70;99.90
16700;DHT22;8466;52.286;21.124;2022-10-16T09:21:54;18.80;99.90
16700;DHT22;8466;52.286;21.124;2022-10-16T09:24:25;18.90;99.90
16700;DHT22;8466;52.286;21.124;2022-10-16T09:26:55;18.90;99.90
16700;DHT22;8466;52.286;21.124;2022-10-16T09:29:25;18.90;99.90
16700;DHT22;8466;52.286;21.124;2022-10-16T09:31:55;18.80;99.90
16700;DHT22;8466;52.286;21.124;2022-10-16T09:34:30;18.90;99.90
16700;DHT22;8466;52.286;21.124;2022-10-16T09:37:03;18.90;99.90
16700;DHT22;8466;52.286;21.124;2022-10-16T09:39:44;19.00;99.90
16700;DHT22;8466;52.286;21.124;2022-10-16T09:42:30;19.10;99.90
16700;DHT22;8466;52.286;21.124;2022-10-16T09:45:21;19.20;99.90
16700;DHT22;8466;52.286;21.124;2022-10-16T09:47:51;19.30;99.90
16700;DHT22;8466;52.286;21.124;2022-10-16T09:50:25;19.40;99.90
16700;DHT22;8466;52.286;21.124;2022-10-16T09:53:05;19.40;99.90
16700;DHT22;8466;52.286;21.124;2022-10-16T09:55:34;19.50;99.90
16700;DHT22;8466;52.286;21.124;2022-10-16T09:58:03;19.60;99.90
16700;DHT22;8466;52.286;21.124;2022-10-16T10:00:42;19.60;99.90
16700;DHT22;8466;52.286;21.124;2022-10-16T10:03:35;19.60;99.90
16700;DHT22;8466;52.286;21.124;2022-10-16T10:06:15;19.60;99.90
16700;DHT22;8466;52.286;21.124;2022-10-16T10:08:56;19.60;99.90
16700;DHT22;8466;52.286;21.124;2022-10-16T10:11:51;19.60;99.90
16700;DHT22;8466;52.286;21.124;2022-10-16T10:14:39;19.70;99.90
16700;DHT22;8466;52.286;21.124;2022-10-16T10:17:19;19.70;99.90
16700;DHT22;8466;52.286;21.124;2022-10-16T10:19:51;19.70;99.90
16700;DHT22;8466;52.286;21.124;2022-10-16T10:22:26;19.70;99.90
16700;DHT22;8466;52.286;21.124;2022-10-16T10:25:22;19.70;99.90
16700;DHT22;8466;52.286;21.124;2022-10-16T10:28:00;19.70;99.90
16700;DHT22;8466;52.286;21.124;2022-10-16T10:30:38;19.90;99.90
16700;DHT22;8466;52.286;21.124;2022-10-16T10:33:27;20.10;99.90
16700;DHT22;8466;52.286;21.124;2022-10-16T10:36:04;20.20;99.90
16700;DHT22;8466;52.286;21.124;2022-10-16T10:38:42;20.30;99.90
16700;DHT22;8466;52.286;21.124;2022-10-16T10:41:38;20.40;99.90
16700;DHT22;8466;52.286;21.124;2022-10-16T10:44:16;20.40;99.90
16700;DHT22;8466;52.286;21.124;2022-10-16T10:46:51;20.50;99.90
16700;DHT22;8466;52.286;21.124;2022-10-16T10:49:36;20.40;99.90
16700;DHT22;8466;52.286;21.124;2022-10-16T10:52:29;20.40;99.90
16700;DHT22;8466;52.286;21.124;2022-10-16T10:55:15;20.40;99.90
16700;DHT22;8466;52.286;21.124;2022-10-16T10:58:12;20.40;99.90
16700;DHT22;8466;52.286;21.124;2022-10-16T11:00:48;20.50;99.90
16700;DHT22;8466;52.286;21.124;2022-10-16T11:03:41;20.50;99.90
16700;DHT22;8466;52.286;21.124;2022-10-16T11:06:16;20.50;99.90
16700;DHT22;8466;52.286;21.124;2022-10-16T11:08:48;20.60;99.90
16700;DHT22;8466;52.286;21.124;2022-10-16T11:11:28;20.70;99.90
16700;DHT22;8466;52.286;21.124;2022-10-16T11:14:01;20.70;99.90
16700;DHT22;8466;52.286;21.124;2022-10-16T11:16:34;20.80;99.90
16700;DHT22;8466;52.286;21.124;2022-10-16T11:19:11;20.80;99.90
16700;DHT22;8466;52.286;21.124;2022-10-16T11:21:46;20.80;99.90
16700;DHT22;8466;52.286;21.124;2022-10-16T11:24:20;20.80;99.90
16700;DHT22;8466;52.286;21.124;2022-10-16T11:26:53;20.70;99.90
16700;DHT22;8466;52.286;21.124;2022-10-16T11:29:24;20.60;99.90
16700;DHT22;8466;52.286;21.124;2022-10-16T11:31:58;20.70;99.90
16700;DHT22;8466;52.286;21.124;2022-10-16T11:34:31;20.60;99.90
16700;DHT22;8466;52.286;21.124;2022-10-16T11:37:10;20.60;99.90
16700;DHT22;8466;52.286;21.124;2022-10-16T11:39:40;20.50;99.90
16700;DHT22;8466;52.286;21.124;2022-10-16T11:42:11;20.50;99.90
16700;DHT22;8466;52.286;21.124;2022-10-16T11:44:50;20.40;99.90
16700;DHT22;8466;52.286;21.124;2022-10-16T11:47:27;20.40;99.90
16700;DHT22;8466;52.286;21.124;2022-10-16T11:50:23;20.30;99.90
16700;DHT22;8466;52.286;21.124;2022-10-16T11:52:59;20.30;99.90
16700;DHT22;8466;52.286;21.124;2022-10-16T11:55:32;20.20;99.90
16700;DHT22;8466;52.286;21.124;2022-10-16T11:58:05;20.10;99.90
16700;DHT22;8466;52.286;21.124;2022-10-16T12:00:42;20.00;99.90
16700;DHT22;8466;52.286;21.124;2022-10-16T12:03:19;20.00;99.90
16700;DHT22;8466;52.286;21.124;2022-10-16T12:06:11;20.10;99.90
16700;DHT22;8466;52.286;21.124;2022-10-16T12:08:43;20.20;99.90
16700;DHT22;8466;52.286;21.124;2022-10-16T12:11:24;20.30;99.90
16700;DHT22;8466;52.286;21.124;2022-10-16T12:14:18;20.50;99.90
16700;DHT22;8466;52.286;21.124;2022-10-16T12:16:55;20.60;99.90
16700;DHT22;8466;52.286;21.124;2022-10-16T12:19:26;20.70;99.90
16700;DHT22;8466;52.286;21.124;2022-10-16T12:22:00;20.80;99.90
16700;DHT22;8466;52.286;21.124;2022-10-16T12:24:37;20.90;99.90
16700;DHT22;8466;52.286;21.124;2022-10-16T12:27:19;21.10;99.90
16700;DHT22;8466;52.286;21.124;2022-10-16T12:29:54;21.10;99.90
16700;DHT22;8466;52.286;21.124;2022-10-16T12:32:29;21.10;99.90
16700;DHT22;8466;52.286;21.124;2022-10-16T12:35:32;21.20;99.90
16700;DHT22;8466;52.286;21.124;2022-10-16T12:38:06;20.90;99.90
16700;DHT22;8466;52.286;21.124;2022-10-16T12:40:38;20.70;99.90
16700;DHT22;8466;52.286;21.124;2022-10-16T12:43:13;20.50;99.90
16700;DHT22;8466;52.286;21.124;2022-10-16T12:49:28;20.10;99.90
16700;DHT22;8466;52.286;21.124;2022-10-16T12:51:59;19.90;99.90
16700;DHT22;8466;52.286;21.124;2022-10-16T12:54:31;19.90;99.90
16700;DHT22;8466;52.286;21.124;2022-10-16T12:57:30;19.90;99.90
16700;DHT22;8466;52.286;21.124;2022-10-16T13:00:13;19.90;99.90
16700;DHT22;8466;52.286;21.124;2022-10-16T13:02:57;20.00;99.90
16700;DHT22;8466;52.286;21.124;2022-10-16T13:05:40;20.00;99.90
16700;DHT22;8466;52.286;21.124;2022-10-16T13:08:24;20.00;99.90
16700;DHT22;8466;52.286;21.124;2022-10-16T13:11:05;20.00;99.90
16700;DHT22;8466;52.286;21.124;2022-10-16T13:13:52;19.90;99.90
16700;DHT22;8466;52.286;21.124;2022-10-16T13:16:29;19.70;99.90
16700;DHT22;8466;52.286;21.124;2022-10-16T13:19:11;19.60;99.90
16700;DHT22;8466;52.286;21.124;2022-10-16T13:21:48;19.60;99.90
16700;DHT22;8466;52.286;21.124;2022-10-16T13:24:33;19.70;99.90
16700;DHT22;8466;52.286;21.124;2022-10-16T13:27:12;19.90;99.90
16700;DHT22;8466;52.286;21.124;2022-10-16T13:29:43;20.10;99.90
16700;DHT22;8466;52.286;21.124;2022-10-16T13:32:15;20.10;99.90
16700;DHT22;8466;52.286;21.124;2022-10-16T13:34:46;20.00;99.90
16700;DHT22;8466;52.286;21.124;2022-10-16T13:37:18;19.90;99.90
16700;DHT22;8466;52.286;21.124;2022-10-16T13:39:49;19.80;99.90
16700;DHT22;8466;52.286;21.124;2022-10-16T13:42:23;19.70;99.90
16700;DHT22;8466;52.286;21.124;2022-10-16T13:44:55;19.60;99.90
16700;DHT22;8466;52.286;21.124;2022-10-16T13:47:25;19.40;99.90
16700;DHT22;8466;52.286;21.124;2022-10-16T13:50:02;19.30;99.90
16700;DHT22;8466;52.286;21.124;2022-10-16T13:52:31;19.20;99.90
16700;DHT22;8466;52.286;21.124;2022-10-16T13:55:02;19.10;99.90
16700;DHT22;8466;52.286;21.124;2022-10-16T13:57:31;19.00;99.90
16700;DHT22;8466;52.286;21.124;2022-10-16T13:59:59;19.00;99.90
16700;DHT22;8466;52.286;21.124;2022-10-16T14:02:32;18.90;99.90
16700;DHT22;8466;52.286;21.124;2022-10-16T14:05:09;18.90;99.90
16700;DHT22;8466;52.286;21.124;2022-10-16T14:07:44;18.80;99.90
16700;DHT22;8466;52.286;21.124;2022-10-16T14:10:23;18.90;99.90
16700;DHT22;8466;52.286;21.124;2022-10-16T14:12:57;18.80;99.90
16700;DHT22;8466;52.286;21.124;2022-10-16T14:15:27;18.80;99.90
16700;DHT22;8466;52.286;21.124;2022-10-16T14:17:59;18.80;99.90
16700;DHT22;8466;52.286;21.124;2022-10-16T14:20:31;18.70;99.90
16700;DHT22;8466;52.286;21.124;2022-10-16T14:23:02;18.70;99.90
16700;DHT22;8466;52.286;21.124;2022-10-16T14:25:33;18.70;99.90
16700;DHT22;8466;52.286;21.124;2022-10-16T14:28:13;18.70;99.90
16700;DHT22;8466;52.286;21.124;2022-10-16T14:30:50;18.80;99.90
16700;DHT22;8466;52.286;21.124;2022-10-16T14:33:25;18.80;99.90
16700;DHT22;8466;52.286;21.124;2022-10-16T14:36:03;18.80;99.90
16700;DHT22;8466;52.286;21.124;2022-10-16T14:38:33;18.80;99.90
16700;DHT22;8466;52.286;21.124;2022-10-16T14:41:03;18.80;99.90
16700;DHT22;8466;52.286;21.124;2022-10-16T14:43:34;18.70;99.90
16700;DHT22;8466;52.286;21.124;2022-10-16T14:46:08;18.70;99.90
16700;DHT22;8466;52.286;21.124;2022-10-16T14:48:41;18.70;99.90
16700;DHT22;8466;52.286;21.124;2022-10-16T14:51:13;18.70;99.90
16700;DHT22;8466;52.286;21.124;2022-10-16T14:53:42;18.70;99.90
16700;DHT22;8466;52.286;21.124;2022-10-16T14:56:19;18.80;99.90
16700;DHT22;8466;52.286;21.124;2022-10-16T14:58:50;18.80;99.90
16700;DHT22;8466;52.286;21.124;2022-10-16T15:01:19;18.80;99.90
16700;DHT22;8466;52.286;21.124;2022-10-16T15:03:48;18.90;99.90
16700;DHT22;8466;52.286;21.124;2022-10-16T15:06:19;18.90;99.90
16700;DHT22;8466;52.286;21.124;2022-10-16T15:08:48;18.80;99.90
16700;DHT22;8466;52.286;21.124;2022-10-16T15:11:19;18.80;99.90
16700;DHT22;8466;52.286;21.124;2022-10-16T15:13:48;18.70;99.90
16700;DHT22;8466;52.286;21.124;2022-10-16T15:16:18;18.70;99.90
16700;DHT22;8466;52.286;21.124;2022-10-16T15:18:47;18.70;99.90
16700;DHT22;8466;52.286;21.124;2022-10-16T15:21:24;18.60;99.90
16700;DHT22;8466;52.286;21.124;2022-10-16T15:23:53;18.50;99.90
16700;DHT22;8466;52.286;21.124;2022-10-16T15:26:25;18.40;99.90
16700;DHT22;8466;52.286;21.124;2022-10-16T15:28:54;18.40;99.90
16700;DHT22;8466;52.286;21.124;2022-10-16T15:31:24;18.40;99.90
16700;DHT22;8466;52.286;21.124;2022-10-16T15:33:54;18.30;99.90
16700;DHT22;8466;52.286;21.124;2022-10-16T15:36:26;18.20;99.90
16700;DHT22;8466;52.286;21.124;2022-10-16T15:38:55;18.10;99.90
16700;DHT22;8466;52.286;21.124;2022-10-16T15:41:25;18.10;99.90
16700;DHT22;8466;52.286;21.124;2022-10-16T15:43:54;18.10;99.90
16700;DHT22;8466;52.286;21.124;2022-10-16T15:46:24;18.00;99.90
16700;DHT22;8466;52.286;21.124;2022-10-16T15:48:58;18.00;99.90
16700;DHT22;8466;52.286;21.124;2022-10-16T15:51:27;17.90;99.90
16700;DHT22;8466;52.286;21.124;2022-10-16T15:54:02;17.80;99.90
16700;DHT22;8466;52.286;21.124;2022-10-16T15:56:34;17.80;99.90
16700;DHT22;8466;52.286;21.124;2022-10-16T15:59:05;17.80;99.90
16700;DHT22;8466;52.286;21.124;2022-10-16T16:01:35;17.70;99.90
16700;DHT22;8466;52.286;21.124;2022-10-16T16:04:08;17.70;99.90
16700;DHT22;8466;52.286;21.124;2022-10-16T16:06:57;17.70;99.90
16700;DHT22;8466;52.286;21.124;2022-10-16T16:09:29;17.70;99.90